Deer Lodge (38S)
Deer Lodge, MT
Field Elevation: 4692
Lat: 49°23.27N  Long: 112°45.89W
CTAF/Unicom Freq: 120.0250
   
     For Weather-by-Phone, call 406-846-1177
Weather Advisories
2018-02-17   20:51 Z
Altimeter 29.61" Hg
Wind 150° @ 12 KT
Gusts 15 KT
Visibility 10 SM
Temperature 1° C (34° F)
Dewpoint -4° C (25° F)
Relative Humidity 68%
Density Altitude --
Condensation Altitude 7,200 feet
Wind Chill: -4° C (25° F)
Wind and Runways
Indicated Runway = 12
Headwind = 10 kt
Crosswind = 6 kt
History
 
 
 
More Info
NOAA Forecast
 
 
About Us
Belfort Instrument
 
 
FAA Disclaimer: The data displayed is for advisory purposes only and is not to be used for flight planning or operations. For official data, please call 406-846-1177 to hear the current automated AWOS voice message.
  METAR 38S 172051Z AUTO 15012G15KT 10 SM 01/M04 A2961